Time;durP1;ratioP1;P1;durP2;ratioP2;P2;SDS_P1;SDS_P2;PMS_P1;PMS_P2;Temp;Humidity;BMP_temperature;BMP_pressure;BME280_temperature;BME280_humidity;BME280_pressure;Samples;Min_cycle;Max_cycle;Signal;HPM_P1;HPM_P2
2021/06/12 00:01:35;;;;;;;15.55;7.08;;;;;;;20.02;64.06;100613.44;4940931;58;1141040;-74
2021/06/12 00:06:41;;;;;;;8.48;6.87;;;;;;;19.86;64.47;100617.05;4942465;58;1140629;-76
2021/06/12 00:11:47;;;;;;;8.15;6.78;;;;;;;19.88;64.89;100614.20;4843576;59;1138900;-77
2021/06/12 00:16:53;;;;;;;8.48;7.17;;;;;;;19.87;64.95;100615.20;4711631;60;1138321;-77
2021/06/12 00:21:58;;;;;;;8.68;7.03;;;;;;;19.89;65.09;100610.00;4746911;60;1138406;-75
2021/06/12 00:27:04;;;;;;;9.13;6.42;;;;;;;19.98;65.48;100605.43;4835238;60;1138803;-72
2021/06/12 00:32:11;;;;;;;13.93;5.83;;;;;;;20.01;65.35;100601.86;4711466;60;1138830;-76
2021/06/12 00:37:16;;;;;;;7.40;5.65;;;;;;;19.92;65.21;100604.28;4782041;60;1140919;-77
2021/06/12 00:42:22;;;;;;;11.65;9.68;;;;;;;19.94;65.46;100597.39;4843706;59;1138835;-75
2021/06/12 00:47:28;;;;;;;16.62;9.28;;;;;;;19.97;65.44;100593.02;4711342;60;1140921;-76
2021/06/12 00:52:37;;;;;;;9.50;6.83;;;;;;;19.91;65.51;100599.92;4782000;61;1140914;-75
2021/06/12 00:57:44;;;;;;;13.25;8.00;;;;;;;19.73;65.93;100598.52;4846666;59;1138969;-74
2021/06/12 01:02:51;;;;;;;11.97;7.42;;;;;;;19.52;66.05;100605.85;4843243;60;1140995;-74
2021/06/12 01:07:56;;;;;;;13.43;7.78;;;;;;;19.29;66.35;100608.41;4744641;60;1141031;-75
2021/06/12 01:13:28;;;;;;;13.43;7.83;;;;;;;19.16;66.83;100604.94;4961206;58;1140974;-76
2021/06/12 01:18:37;;;;;;;14.53;9.10;;;;;;;19.09;67.41;100608.00;4961719;58;1140861;-73
2021/06/12 01:23:58;;;;;;;8.83;7.58;;;;;;;19.18;68.21;100595.39;4961241;58;1140518;-75
2021/06/12 01:29:44;;;;;;;11.25;8.65;;;;;;;19.42;68.39;100593.94;4961338;58;1138240;-76
2021/06/12 01:34:51;;;;;;;11.10;8.10;;;;;;;19.62;68.26;100576.95;4938074;58;1140393;-76
2021/06/12 01:39:58;;;;;;;8.63;7.80;;;;;;;19.70;68.00;100577.42;4937902;59;1140544;-76
2021/06/12 01:45:07;;;;;;;11.05;6.95;;;;;;;19.73;67.70;100573.02;4937914;59;1138494;-74
2021/06/12 01:50:16;;;;;;;8.28;7.35;;;;;;;19.80;67.74;100570.81;4937866;59;1140597;-76
2021/06/12 01:55:26;;;;;;;8.18;6.97;;;;;;;19.85;67.86;100552.84;4938215;59;1138587;-75
2021/06/12 02:00:32;;;;;;;14.63;6.73;;;;;;;19.86;67.76;100558.00;4937576;59;1138568;-73
2021/06/12 02:05:38;;;;;;;11.60;6.20;;;;;;;19.83;67.35;100552.18;4943400;58;1140736;-74
2021/06/12 02:10:47;;;;;;;10.80;6.65;;;;;;;19.69;67.20;100542.21;4912635;59;1140639;-74
2021/06/12 02:15:57;;;;;;;10.88;7.35;;;;;;;19.61;67.10;100538.55;5004257;57;1140651;-76
2021/06/12 02:21:04;;;;;;;11.68;8.03;;;;;;;19.48;67.12;100532.90;5004109;57;1140575;-76
2021/06/12 02:26:12;;;;;;;7.92;7.15;;;;;;;19.43;67.11;100529.90;5004056;57;1140369;-76
2021/06/12 02:31:28;;;;;;;23.20;8.75;;;;;;;19.30;66.97;100531.81;5004418;57;1138392;-76
2021/06/12 02:36:34;;;;;;;8.83;7.42;;;;;;;19.29;67.17;100520.75;5003907;57;1140488;-77
2021/06/12 02:41:40;;;;;;;12.03;7.20;;;;;;;19.26;67.02;100522.44;5004511;57;1138505;-73
2021/06/12 02:46:48;;;;;;;8.08;7.28;;;;;;;19.19;67.08;100520.14;5004132;57;1140438;-76
2021/06/12 02:52:00;;;;;;;9.60;8.15;;;;;;;19.14;67.26;100517.64;5004498;57;1138338;-74
2021/06/12 02:57:07;;;;;;;17.67;9.65;;;;;;;19.01;67.36;100525.41;5004431;57;1138754;-76
2021/06/12 03:02:17;;;;;;;13.95;9.33;;;;;;;19.03;67.81;100506.80;5004153;57;1140934;-73
2021/06/12 03:07:24;;;;;;;9.53;8.60;;;;;;;19.17;67.83;100504.73;4986581;57;1140961;-75
2021/06/12 03:12:32;;;;;;;9.50;8.18;;;;;;;19.22;67.45;100506.39;4920315;58;1138758;-76
2021/06/12 03:17:38;;;;;;;11.88;8.85;;;;;;;19.12;67.20;100503.06;4920780;58;1138797;-78
2021/06/12 03:22:48;;;;;;;12.85;8.83;;;;;;;19.05;67.49;100498.59;4920289;58;1141107;-77
2021/06/12 03:27:54;;;;;;;12.10;8.65;;;;;;;19.10;67.63;100508.27;4920240;58;1140928;-74
2021/06/12 03:33:02;;;;;;;14.90;8.43;;;;;;;19.20;67.74;100493.66;4920089;58;1140888;-74
2021/06/12 03:38:08;;;;;;;14.58;9.03;;;;;;;19.29;67.66;100493.94;4919971;58;1140908;-77
2021/06/12 03:43:16;;;;;;;10.32;9.35;;;;;;;19.35;67.28;100502.30;4930732;58;1140879;-76
2021/06/12 03:48:24;;;;;;;11.43;9.50;;;;;;;19.25;66.95;100497.97;4960126;58;1140833;-76
2021/06/12 03:53:31;;;;;;;9.95;8.45;;;;;;;19.22;67.20;100501.03;4935202;57;1140850;-76
2021/06/12 03:58:37;;;;;;;13.55;8.85;;;;;;;19.24;67.11;100489.62;4919953;58;1138842;-73
2021/06/12 04:03:45;;;;;;;17.98;9.60;;;;;;;19.18;67.14;100486.30;4919642;58;1140567;-74
2021/06/12 04:08:51;;;;;;;11.50;9.63;;;;;;;19.17;67.43;100494.51;4924811;58;1140537;-76
2021/06/12 04:13:59;;;;;;;13.40;9.33;;;;;;;19.16;67.46;100490.98;4951774;58;1140591;-76
2021/06/12 04:19:05;;;;;;;15.65;8.98;;;;;;;19.17;67.75;100482.44;4951814;57;1140479;-77
2021/06/12 04:24:10;;;;;;;10.58;8.88;;;;;;;19.27;67.86;100482.55;4951486;58;1140406;-78
2021/06/12 04:29:16;;;;;;;16.05;9.15;;;;;;;19.29;67.40;100482.38;4951500;58;1140578;-76
2021/06/12 04:34:23;;;;;;;12.32;8.02;;;;;;;19.27;67.58;100483.89;4961885;57;1150157;-78
2021/06/12 04:39:30;;;;;;;15.18;6.80;;;;;;;19.27;67.89;100475.00;4949602;58;1140466;-75
2021/06/12 04:44:36;;;;;;;14.28;7.22;;;;;;;19.19;67.98;100469.20;4951965;57;1140586;-79
2021/06/12 04:49:42;;;;;;;12.18;7.35;;;;;;;19.18;68.08;100462.16;4952035;57;1140519;-75
2021/06/12 04:54:47;;;;;;;12.00;7.85;;;;;;;19.23;68.24;100463.82;4951780;57;1140319;-79
2021/06/12 04:59:53;;;;;;;9.43;7.17;;;;;;;19.29;68.07;100452.88;4951813;58;1140311;-77
2021/06/12 05:04:59;;;;;;;10.03;7.25;;;;;;;19.31;68.21;100444.98;5000651;57;1138501;-74
2021/06/12 05:10:10;;;;;;;8.63;6.53;;;;;;;19.37;68.56;100442.61;4974452;58;1140361;-74
2021/06/12 05:15:16;;;;;;;10.30;6.47;;;;;;;19.47;68.59;100440.53;4806659;58;1138317;-80
2021/06/12 05:20:24;;;;;;;10.55;5.87;;;;;;;19.49;68.69;100431.32;4948697;58;1140631;-77
2021/06/12 05:25:31;;;;;;;7.78;5.50;;;;;;;19.56;68.48;100436.28;4866658;59;1140929;-79
2021/06/12 05:30:36;;;;;;;7.33;5.78;;;;;;;19.67;68.47;100433.70;4948982;58;1138810;-76
2021/06/12 05:35:42;;;;;;;7.95;4.95;;;;;;;19.78;68.20;100438.64;4949117;58;1138823;-76
2021/06/12 05:40:48;;;;;;;6.20;5.60;;;;;;;19.92;67.92;100439.19;4948753;58;1138825;-80
2021/06/12 05:45:54;;;;;;;6.70;5.10;;;;;;;19.97;67.58;100430.09;4852634;58;1138874;-73
2021/06/12 05:51:00;;;;;;;9.33;4.10;;;;;;;20.05;67.54;100426.98;4910287;59;1138732;-76
2021/06/12 05:56:07;;;;;;;8.63;5.12;;;;;;;20.17;67.51;100425.02;4829955;59;1138907;-74
2021/06/12 06:01:13;;;;;;;6.75;4.70;;;;;;;20.27;67.54;100419.39;4912406;58;1138925;-74
2021/06/12 06:06:20;;;;;;;5.00;4.60;;;;;;;20.42;67.36;100412.71;4903737;59;1138821;-74
2021/06/12 06:11:25;;;;;;;5.80;3.75;;;;;;;20.63;67.18;100413.61;4888779;59;1139096;-74
2021/06/12 06:16:31;;;;;;;5.30;4.90;;;;;;;20.86;66.08;100403.27;4793971;60;1139109;-74
2021/06/12 06:21:38;;;;;;;6.33;4.95;;;;;;;21.02;64.94;100400.36;4835645;59;1139050;-78
2021/06/12 06:26:43;;;;;;;6.05;4.30;;;;;;;21.18;65.33;100392.56;4833999;59;1138907;-75
2021/06/12 06:31:49;;;;;;;7.17;4.15;;;;;;;21.33;64.79;100394.20;4833524;59;1139105;-78
2021/06/12 06:36:55;;;;;;;5.53;4.50;;;;;;;21.44;64.16;100398.23;4833857;59;1139046;-74
2021/06/12 06:42:02;;;;;;;9.90;4.40;;;;;;;21.51;63.80;100392.93;4839453;59;1138814;-78
2021/06/12 06:47:09;;;;;;;9.88;4.45;;;;;;;21.56;63.32;100385.09;4839574;59;1138990;-74
2021/06/12 06:52:14;;;;;;;4.60;4.15;;;;;;;21.58;62.71;100381.19;4837933;59;1138810;-77
2021/06/12 06:57:20;;;;;;;4.50;3.65;;;;;;;21.55;62.52;100374.84;4835643;59;1138800;-78
2021/06/12 07:02:26;;;;;;;8.90;4.55;;;;;;;21.60;62.86;100376.95;4842299;59;1138893;-75
2021/06/12 07:07:32;;;;;;;4.05;3.62;;;;;;;21.61;62.88;100374.59;4831960;59;1138831;-76
2021/06/12 07:12:38;;;;;;;6.65;4.15;;;;;;;21.65;63.14;100369.97;4830165;59;1138790;-76
2021/06/12 07:17:44;;;;;;;6.20;4.00;;;;;;;21.67;63.19;100367.09;4805014;59;1138775;-79
2021/06/12 07:22:51;;;;;;;9.85;4.35;;;;;;;21.71;62.64;100366.48;4974561;58;1138776;-75
2021/06/12 07:27:57;;;;;;;3.47;3.17;;;;;;;21.73;62.64;100359.05;4878197;59;1138727;-74
2021/06/12 07:33:02;;;;;;;3.85;3.55;;;;;;;21.74;62.73;100363.92;4878633;58;1138905;-75
2021/06/12 07:38:09;;;;;;;5.50;3.80;;;;;;;21.72;62.72;100365.97;4878581;59;1138816;-75
2021/06/12 07:43:18;;;;;;;5.17;3.15;;;;;;;21.71;63.06;100355.72;4877939;59;1138973;-76
2021/06/12 07:48:23;;;;;;;9.90;3.98;;;;;;;21.80;62.78;100351.55;4877919;58;1138755;-76
2021/06/12 07:53:29;;;;;;;8.50;4.10;;;;;;;21.85;62.75;100355.81;4878048;59;1139312;-78
2021/06/12 07:58:35;;;;;;;10.18;4.62;;;;;;;21.84;62.58;100356.36;4878673;58;1138831;-76
2021/06/12 08:03:41;;;;;;;3.37;3.05;;;;;;;21.78;62.12;100355.78;4874946;58;1141359;-76
2021/06/12 08:08:47;;;;;;;6.15;3.37;;;;;;;21.72;61.84;100355.20;4876895;58;1138323;-76
2021/06/12 08:13:53;;;;;;;6.50;3.37;;;;;;;21.65;62.17;100357.03;4874805;58;1138503;-79
2021/06/12 08:18:59;;;;;;;3.92;3.47;;;;;;;21.66;62.36;100372.16;4893584;57;1138376;-76
2021/06/12 08:24:06;;;;;;;6.95;4.87;;;;;;;21.58;61.46;100366.89;4784028;60;1138542;-77
2021/06/12 08:29:11;;;;;;;5.97;3.72;;;;;;;21.54;62.44;100382.59;4865204;59;1138528;-76
2021/06/12 08:34:17;;;;;;;4.72;4.10;;;;;;;21.44;61.16;100386.64;4820665;59;1138542;-73
2021/06/12 08:39:23;;;;;;;3.95;3.65;;;;;;;21.17;62.04;100389.55;4854664;59;1138295;-74
2021/06/12 08:44:30;;;;;;;9.66;4.10;;;;;;;20.70;63.87;100393.55;5007773;58;1138312;-75
2021/06/12 08:49:35;;;;;;;4.03;3.80;;;;;;;20.41;64.62;100409.70;5009302;57;1138867;-74
2021/06/12 08:54:42;;;;;;;11.35;8.45;;;;;;;20.26;65.48;100399.75;5026090;58;1138489;-75
2021/06/12 08:59:48;;;;;;;6.05;5.17;;;;;;;20.08;66.69;100409.17;5020716;58;1140488;-76
2021/06/12 09:04:54;;;;;;;5.97;5.47;;;;;;;19.91;68.20;100407.98;4937107;58;1138541;-77
2021/06/12 09:10:00;;;;;;;10.18;5.25;;;;;;;19.65;68.74;100413.77;4893149;58;1138553;-76
2021/06/12 09:15:17;;;;;;;6.85;5.25;;;;;;;19.54;69.47;100407.48;4891581;58;1140718;-78
2021/06/12 09:20:33;;;;;;;8.63;6.83;;;;;;;19.54;70.46;100410.67;4947404;57;1138641;-77
2021/06/12 09:25:47;;;;;;;7.05;6.40;;;;;;;19.49;71.03;100406.31;5019807;57;1138746;-75
2021/06/12 09:30:53;;;;;;;6.37;5.87;;;;;;;19.49;72.19;100391.09;5025394;57;1138735;-73
2021/06/12 09:36:03;;;;;;;7.65;6.15;;;;;;;19.48;72.24;100389.38;5030350;57;1138823;-77
2021/06/12 09:41:29;;;;;;;6.03;5.53;;;;;;;19.45;72.46;100383.53;5028238;56;1138539;-76
2021/06/12 09:46:45;;;;;;;6.42;5.60;;;;;;;19.42;73.18;100385.23;4977466;58;1138366;-74
2021/06/12 09:52:11;;;;;;;6.28;5.78;;;;;;;19.39;73.75;100375.72;5020641;57;1138351;-75
2021/06/12 09:57:24;;;;;;;8.75;4.85;;;;;;;19.36;74.67;100376.58;5032737;57;1138348;-75
2021/06/12 10:02:45;;;;;;;6.65;6.12;;;;;;;19.36;74.75;100371.22;5030448;57;1138454;-75
2021/06/12 10:07:52;;;;;;;6.03;5.45;;;;;;;19.36;75.05;100370.70;5028714;57;1138475;-75
2021/06/12 10:13:02;;;;;;;4.10;3.83;;;;;;;19.47;76.00;100375.64;5029011;57;1138685;-76
2021/06/12 10:18:09;;;;;;;6.30;4.75;;;;;;;19.57;76.82;100359.32;5028371;57;1138403;-73
2021/06/12 10:23:17;;;;;;;6.87;5.00;;;;;;;19.61;76.85;100353.92;4966211;58;1138343;-73
2021/06/12 10:28:24;;;;;;;5.15;4.65;;;;;;;19.66;76.29;100348.86;4977378;58;1138773;-73
2021/06/12 10:33:30;;;;;;;4.87;4.42;;;;;;;19.70;77.41;100352.02;4966537;58;1138846;-75
2021/06/12 10:38:36;;;;;;;4.37;4.05;;;;;;;19.81;77.53;100343.02;4978837;58;1138754;-74
2021/06/12 10:43:42;;;;;;;6.65;3.45;;;;;;;19.91;77.07;100324.78;4982768;58;1138695;-72
2021/06/12 10:49:01;;;;;;;4.35;3.95;;;;;;;19.98;76.92;100327.06;4984922;58;1138739;-74
2021/06/12 10:54:21;;;;;;;3.33;3.12;;;;;;;20.00;77.22;100318.32;4982872;58;1138560;-75
2021/06/12 10:59:51;;;;;;;3.60;3.40;;;;;;;20.09;76.26;100306.97;4970655;58;1138480;-77
2021/06/12 11:05:01;;;;;;;6.10;3.02;;;;;;;20.19;75.57;100303.48;4828537;59;1138686;-75
2021/06/12 11:10:22;;;;;;;3.15;2.95;;;;;;;20.27;75.18;100297.19;4829215;59;1138682;-77
2021/06/12 11:15:34;;;;;;;4.05;3.65;;;;;;;20.44;75.19;100299.19;4828051;59;1138558;-74
2021/06/12 11:20:45;;;;;;;3.00;2.77;;;;;;;20.49;74.14;100291.37;4836265;59;1144363;-73
2021/06/12 11:25:57;;;;;;;5.10;3.55;;;;;;;20.52;73.76;100276.23;4856047;59;1138555;-71
2021/06/12 11:31:40;;;;;;;5.35;2.50;;;;;;;20.65;72.73;100274.52;4856161;60;1139019;-73
2021/06/12 11:36:41;;;;;;;2.85;2.65;;;;;;;20.75;71.43;100268.86;4854546;59;1138850;-75
2021/06/12 11:41:47;;;;;;;3.57;3.27;;;;;;;20.91;70.55;100267.27;4906453;58;1138546;-73
2021/06/12 11:46:53;;;;;;;3.95;3.10;;;;;;;20.97;69.05;100257.58;4951181;57;1138597;-76
2021/06/12 11:51:59;;;;;;;9.08;3.27;;;;;;;20.91;69.20;100259.70;4950395;58;1138293;-82
2021/06/12 11:57:07;;;;;;;3.10;2.90;;;;;;;20.82;69.54;100258.16;4954574;57;1138312;-82
2021/06/12 12:02:13;;;;;;;4.35;3.20;;;;;;;20.76;69.34;100257.59;4953096;58;1138588;-83
2021/06/12 12:07:19;;;;;;;5.22;2.80;;;;;;;20.65;69.89;100250.34;4951851;58;1138701;-82
2021/06/12 12:12:26;;;;;;;6.53;3.00;;;;;;;20.63;69.76;100247.00;4950734;57;1138476;-82
2021/06/12 12:17:33;;;;;;;6.28;2.95;;;;;;;20.58;69.57;100240.05;4952257;58;1138389;-84
2021/06/12 12:22:44;;;;;;;3.85;2.95;;;;;;;20.56;69.59;100225.97;4952891;57;1139005;-81
2021/06/12 12:28:09;;;;;;;4.95;3.70;;;;;;;20.50;69.34;100214.63;4952157;57;1138471;-84
2021/06/12 12:33:23;;;;;;;6.10;3.37;;;;;;;20.36;70.19;100212.81;4949828;57;1138637;-84
2021/06/12 12:38:29;;;;;;;3.75;3.30;;;;;;;20.29;70.66;100207.36;4949922;58;1138892;-81
2021/06/12 12:43:35;;;;;;;7.90;3.90;;;;;;;20.20;71.37;100207.64;4952887;58;1138681;-81
2021/06/12 12:48:42;;;;;;;4.80;4.28;;;;;;;20.07;71.88;100196.75;4950140;57;1138604;-81
2021/06/12 12:53:48;;;;;;;4.42;3.95;;;;;;;19.92;72.26;100194.92;4948034;58;1138570;-81
2021/06/12 12:58:56;;;;;;;3.37;3.08;;;;;;;19.80;72.73;100188.38;4979618;58;1138590;-81
2021/06/12 13:04:02;;;;;;;2.05;1.85;;;;;;;19.55;73.88;100196.39;4983661;58;1138609;-80
2021/06/12 13:09:19;;;;;;;2.62;2.52;;;;;;;19.05;74.44;100225.17;4983345;58;1138876;-83
2021/06/12 13:14:32;;;;;;;10.70;3.20;;;;;;;18.70;75.13;100248.05;4979779;58;1138828;-82
2021/06/12 13:19:54;;;;;;;10.85;2.60;;;;;;;18.46;75.34;100231.11;4966862;57;1140866;-80
2021/06/12 13:25:16;;;;;;;4.50;3.55;;;;;;;18.28;76.80;100240.74;5007820;57;1140617;-81
2021/06/12 13:30:28;;;;;;;14.28;8.98;;;;;;;18.22;77.23;100237.92;5030091;57;1138403;-81
2021/06/12 13:35:44;;;;;;;14.75;7.17;;;;;;;18.23;77.15;100232.90;5030553;57;1140519;-81
2021/06/12 13:41:02;;;;;;;4.53;2.50;;;;;;;18.16;76.97;100213.20;5031019;57;1140407;-81
2021/06/12 13:46:15;;;;;;;1.47;1.47;;;;;;;18.08;76.41;100216.74;5030217;57;1139020;-80
2021/06/12 13:51:24;;;;;;;3.33;1.90;;;;;;;17.86;75.73;100217.03;5030280;57;1138290;-82
2021/06/12 13:56:30;;;;;;;2.92;1.98;;;;;;;17.65;75.28;100215.92;5030497;57;1138760;-79
2021/06/12 14:01:36;;;;;;;3.17;1.73;;;;;;;17.56;75.42;100206.56;5027025;57;1138838;-79
2021/06/12 14:06:43;;;;;;;2.35;2.12;;;;;;;17.43;75.19;100192.87;5027238;58;1138820;-79
2021/06/12 14:11:48;;;;;;;3.17;2.45;;;;;;;17.43;75.71;100185.35;5030887;57;1138809;-79
2021/06/12 14:16:54;;;;;;;2.77;2.10;;;;;;;17.53;75.88;100192.20;5031220;57;1139220;-79
2021/06/12 14:22:01;;;;;;;4.80;2.03;;;;;;;17.57;76.21;100184.14;5027221;58;1138796;-79
2021/06/12 14:27:07;;;;;;;1.80;1.70;;;;;;;17.58;76.02;100192.99;5016200;57;1138696;-79
2021/06/12 14:32:13;;;;;;;3.17;2.33;;;;;;;17.48;76.24;100183.01;5011377;58;1139028;-79
2021/06/12 14:37:19;;;;;;;4.35;2.35;;;;;;;17.42;77.09;100182.34;5011484;58;1139030;-79
2021/06/12 14:42:26;;;;;;;1.73;1.63;;;;;;;17.36;78.49;100196.41;5011308;58;1138728;-79
2021/06/12 14:47:32;;;;;;;9.80;9.10;;;;;;;17.19;78.29;100192.94;5011392;58;1139014;-78
2021/06/12 14:52:38;;;;;;;4.10;1.73;;;;;;;17.03;78.81;100194.29;5011506;58;1138908;-79
2021/06/12 14:57:44;;;;;;;116.30;71.95;;;;;;;16.99;79.16;100184.43;5011558;58;1138841;-79
2021/06/12 15:02:50;;;;;;;49.18;36.60;;;;;;;16.85;79.27;100194.45;5010653;58;1145237;-79
2021/06/12 15:07:56;;;;;;;5.50;3.95;;;;;;;16.80;80.00;100185.60;5011144;58;1143199;-79
2021/06/12 15:13:01;;;;;;;18.30;14.33;;;;;;;16.85;80.51;100211.32;5011314;58;1138752;-79
2021/06/12 15:18:07;;;;;;;17.37;12.73;;;;;;;16.76;81.10;100206.16;5011030;58;1142967;-79
2021/06/12 15:23:13;;;;;;;10.97;8.47;;;;;;;16.73;81.57;100191.80;5010806;58;1142973;-79
2021/06/12 15:28:22;;;;;;;10.20;7.63;;;;;;;16.77;81.52;100183.79;5001844;57;1141134;-79
2021/06/12 15:33:28;;;;;;;10.73;6.83;;;;;;;16.78;81.59;100174.28;4992213;57;1140864;-79
2021/06/12 15:38:34;;;;;;;4.87;4.40;;;;;;;16.83;81.71;100181.77;4992002;57;1144395;-79
2021/06/12 15:43:40;;;;;;;8.26;7.08;;;;;;;16.84;81.78;100182.10;4992521;57;1139045;-79
2021/06/12 15:48:46;;;;;;;108.65;59.67;;;;;;;16.86;81.91;100178.27;4988746;57;1138933;-79
2021/06/12 15:53:53;;;;;;;117.28;76.35;;;;;;;16.91;82.50;100187.62;4992101;57;1145256;-79
2021/06/12 15:58:59;;;;;;;10.23;8.85;;;;;;;16.90;83.38;100193.97;4992028;57;1144974;-79
2021/06/12 16:04:05;;;;;;;9.67;6.73;;;;;;;16.86;84.37;100199.64;4992141;57;1140444;-79
2021/06/12 16:09:10;;;;;;;7.67;6.57;;;;;;;16.83;85.55;100197.30;4992092;57;1138768;-79
2021/06/12 16:14:16;;;;;;;4.50;3.90;;;;;;;16.77;85.38;100209.16;4992475;57;1138542;-79
2021/06/12 16:19:22;;;;;;;5.83;4.70;;;;;;;16.71;84.69;100225.84;4992357;57;1138440;-79
2021/06/12 16:24:28;;;;;;;2.83;2.50;;;;;;;16.71;84.63;100236.52;4992831;57;1138484;-79
2021/06/12 16:29:35;;;;;;;5.37;2.90;;;;;;;16.68;83.94;100248.36;5007841;57;1138785;-80
2021/06/12 16:34:41;;;;;;;3.00;1.62;;;;;;;16.63;83.14;100260.05;5030800;57;1138540;-80
2021/06/12 16:39:46;;;;;;;11.12;5.62;;;;;;;16.60;81.52;100255.01;5030505;57;1138454;-79
2021/06/12 16:44:52;;;;;;;8.68;7.53;;;;;;;16.50;80.96;100252.46;5030399;57;1140539;-79
2021/06/12 16:49:58;;;;;;;33.33;30.03;;;;;;;16.51;81.11;100250.63;5030422;58;1138576;-79
2021/06/12 17:00:11;;;;;;;10.50;9.37;;;;;;;16.75;80.93;100271.25;5029926;57;1143045;-80
2021/06/12 17:05:17;;;;;;;12.57;11.00;;;;;;;16.94;80.28;100278.13;5030197;57;1140342;-80
2021/06/12 17:10:24;;;;;;;23.83;13.40;;;;;;;17.00;79.01;100276.94;5029813;57;1142636;-79
2021/06/12 17:15:30;;;;;;;36.32;29.22;;;;;;;17.03;78.95;100266.43;5029919;58;1142504;-79
2021/06/12 17:20:36;;;;;;;5.13;3.73;;;;;;;17.16;78.71;100273.44;5029964;57;1142923;-79
2021/06/12 17:25:42;;;;;;;5.73;3.37;;;;;;;17.11;77.24;100289.16;5030519;57;1138471;-79
2021/06/12 17:30:51;;;;;;;12.03;8.03;;;;;;;17.03;76.53;100307.34;5024607;57;1138535;-79
2021/06/12 17:35:56;;;;;;;7.12;3.40;;;;;;;16.98;76.04;100316.84;5004000;58;1140537;-79
2021/06/12 17:41:02;;;;;;;7.53;3.00;;;;;;;16.74;75.10;100318.98;5011452;58;1138235;-79
2021/06/12 17:46:08;;;;;;;15.10;6.43;;;;;;;16.56;75.65;100327.58;5011583;58;1138414;-79
2021/06/12 17:51:15;;;;;;;10.73;6.13;;;;;;;16.42;76.02;100312.52;5011257;58;1140848;-78
2021/06/12 17:56:21;;;;;;;7.60;6.87;;;;;;;16.43;76.81;100305.34;5011216;58;1140348;-79
2021/06/12 18:01:27;;;;;;;4.40;2.13;;;;;;;16.47;77.14;100318.72;5011674;58;1138870;-79
2021/06/12 18:06:33;;;;;;;3.07;2.00;;;;;;;16.47;76.83;100322.72;5011664;58;1138426;-80
2021/06/12 18:11:38;;;;;;;4.80;2.53;;;;;;;16.44;77.04;100325.70;5011611;58;1138861;-79
2021/06/12 18:16:44;;;;;;;6.17;2.67;;;;;;;16.39;77.57;100326.68;5011501;58;1138886;-79
2021/06/12 18:21:50;;;;;;;5.45;2.10;;;;;;;16.31;77.52;100341.34;5011825;58;1138833;-80
2021/06/12 18:26:56;;;;;;;9.65;2.52;;;;;;;16.21;77.65;100355.28;5011490;58;1138678;-78
2021/06/12 18:32:01;;;;;;;7.53;3.20;;;;;;;16.20;77.75;100353.11;5011423;57;1138977;-79
2021/06/12 18:37:07;;;;;;;7.03;2.47;;;;;;;16.15;77.71;100353.61;5011404;58;1138990;-83
2021/06/12 18:42:13;;;;;;;5.53;2.37;;;;;;;16.10;77.71;100353.73;5011361;58;1138923;-79
2021/06/12 18:47:19;;;;;;;6.57;2.60;;;;;;;16.05;77.84;100357.36;5011262;58;1138770;-79
2021/06/12 18:52:24;;;;;;;5.40;3.10;;;;;;;15.97;77.96;100369.33;5011200;58;1138811;-80
2021/06/12 18:57:30;;;;;;;12.83;3.63;;;;;;;15.90;78.12;100361.61;5011238;58;1138784;-80
2021/06/12 19:02:37;;;;;;;4.93;2.80;;;;;;;15.80;78.09;100379.89;5011485;58;1140881;-80
2021/06/12 19:07:43;;;;;;;6.77;3.17;;;;;;;15.73;78.12;100388.19;5011897;58;1138796;-80
2021/06/12 19:12:49;;;;;;;11.88;3.00;;;;;;;15.66;78.27;100378.28;4992539;58;1138872;-78
2021/06/12 19:17:55;;;;;;;7.75;3.60;;;;;;;15.62;78.40;100387.08;4931309;59;1140922;-78
2021/06/12 19:23:00;;;;;;;6.63;2.97;;;;;;;15.56;78.44;100393.55;4931273;59;1138900;-77
2021/06/12 19:28:07;;;;;;;8.90;3.77;;;;;;;15.52;78.78;100403.64;4931454;59;1138780;-78
2021/06/12 19:33:14;;;;;;;7.57;3.63;;;;;;;15.47;78.60;100401.92;4942218;58;1138735;-78
2021/06/12 19:38:42;;;;;;;17.87;5.47;;;;;;;15.42;78.58;100409.55;5012543;56;1139009;-78
2021/06/12 19:43:43;;;;;;;;;;;;;;;15.35;78.54;100413.80;5015677;56;1140838;-77
2021/06/12 19:48:48;;;;;;;8.63;3.12;;;;;;;15.32;78.44;100419.43;5026096;56;976107;-77
2021/06/12 19:53:54;;;;;;;13.30;4.70;;;;;;;15.24;78.66;100416.20;5012935;56;1136784;-78
2021/06/12 19:59:00;;;;;;;25.27;3.60;;;;;;;15.20;78.91;100424.15;5012344;56;1140892;-78
2021/06/12 20:04:06;;;;;;;20.00;12.83;;;;;;;15.18;78.78;100429.28;5012356;56;1140923;-77
2021/06/12 20:09:13;;;;;;;13.23;8.60;;;;;;;15.15;79.01;100438.41;5012043;56;1142644;-78
2021/06/12 20:14:19;;;;;;;5.47;3.60;;;;;;;15.17;79.31;100447.09;5011913;56;1140709;-78
2021/06/12 20:19:25;;;;;;;11.40;5.33;;;;;;;15.24;79.58;100450.84;5012579;56;1138478;-78
2021/06/12 20:24:31;;;;;;;12.30;3.70;;;;;;;15.25;79.34;100462.34;5012206;56;1140693;-78
2021/06/12 20:29:40;;;;;;;8.63;4.87;;;;;;;15.27;79.81;100459.88;5012312;56;1140458;-77
2021/06/12 20:34:46;;;;;;;4.70;3.07;;;;;;;15.30;79.74;100472.88;4996554;56;1138737;-77
2021/06/12 20:39:52;;;;;;;8.10;2.87;;;;;;;15.32;80.09;100482.05;4908188;59;1138446;-78
2021/06/12 20:44:58;;;;;;;3.92;3.25;;;;;;;15.29;80.04;100483.68;4908601;59;1138469;-77
2021/06/12 20:50:06;;;;;;;9.83;3.10;;;;;;;15.23;80.19;100487.80;4908425;59;1138286;-78
2021/06/12 20:55:13;;;;;;;5.57;2.53;;;;;;;15.19;80.30;100486.91;4908258;59;1138278;-78
2021/06/12 21:00:20;;;;;;;7.43;2.60;;;;;;;15.14;80.17;100491.34;4908288;59;1138321;-77
2021/06/12 21:05:28;;;;;;;10.43;3.50;;;;;;;15.04;80.01;100502.55;4908200;59;1138890;-78
2021/06/12 21:10:34;;;;;;;11.20;4.37;;;;;;;15.01;80.08;100511.67;4908311;59;1140387;-78
2021/06/12 21:15:40;;;;;;;5.77;2.97;;;;;;;14.98;80.01;100517.78;4941987;57;1140409;-78
2021/06/12 21:20:46;;;;;;;11.07;3.83;;;;;;;14.90;80.12;100515.02;4987675;57;1138550;-78
2021/06/12 21:25:51;;;;;;;5.33;3.77;;;;;;;14.82;80.02;100524.25;4987576;58;1141097;-77
2021/06/12 21:30:57;;;;;;;9.65;5.83;;;;;;;14.74;80.03;100523.14;4987862;57;1138501;-78
2021/06/12 21:36:03;;;;;;;21.73;7.67;;;;;;;14.69;79.95;100528.55;4988681;57;1138493;-78
2021/06/12 21:41:09;;;;;;;18.37;8.13;;;;;;;14.68;80.25;100535.69;5010959;58;1140568;-77
2021/06/12 21:46:15;;;;;;;11.80;3.97;;;;;;;14.68;80.03;100534.85;5010927;58;1140465;-77
2021/06/12 21:51:21;;;;;;;9.20;3.40;;;;;;;14.66;80.07;100541.68;5011187;57;1140501;-77
2021/06/12 21:56:27;;;;;;;5.47;2.63;;;;;;;14.57;80.34;100549.18;5011155;57;1138785;-78
2021/06/12 22:01:33;;;;;;;4.37;1.93;;;;;;;14.49;80.49;100548.23;5011016;58;1138679;-78
2021/06/12 22:06:39;;;;;;;9.10;2.60;;;;;;;14.40;80.98;100549.42;5011175;57;1138844;-77
2021/06/12 22:11:46;;;;;;;6.73;2.40;;;;;;;14.26;80.65;100557.81;5011275;58;1138678;-78
2021/06/12 22:16:52;;;;;;;2.67;1.93;;;;;;;14.26;80.65;100557.81;5011401;57;1138429;-77
2021/06/12 22:21:58;;;;;;;5.93;2.37;;;;;;;14.16;80.58;100567.63;5011317;58;1138459;-81
2021/06/12 22:27:04;;;;;;;5.57;2.03;;;;;;;14.11;80.59;100566.36;5011474;57;1138873;-79
2021/06/12 22:32:11;;;;;;;4.23;1.63;;;;;;;14.05;80.75;100570.45;5011725;57;1138443;-79
2021/06/12 22:37:18;;;;;;;8.93;2.10;;;;;;;14.00;80.65;100572.67;5011609;57;1138654;-78
2021/06/12 22:42:23;;;;;;;4.10;1.57;;;;;;;13.95;80.72;100577.56;4993399;56;1138291;-81
2021/06/12 22:47:29;;;;;;;4.73;2.00;;;;;;;13.87;80.99;100583.59;4993390;56;1138492;-81
2021/06/12 22:52:36;;;;;;;7.10;1.93;;;;;;;13.82;81.01;100590.28;4993166;56;1138280;-81
2021/06/12 22:57:42;;;;;;;3.17;1.50;;;;;;;13.81;81.06;100592.59;4991421;56;1224173;-79
2021/06/12 23:02:49;;;;;;;7.17;1.70;;;;;;;13.77;80.95;100594.67;4993227;56;1138313;-81
2021/06/12 23:07:55;;;;;;;3.40;2.15;;;;;;;13.70;80.66;100605.03;4993172;56;1138305;-81
2021/06/12 23:13:01;;;;;;;4.47;1.60;;;;;;;13.58;80.82;100599.48;4993484;56;1138473;-81
2021/06/12 23:18:07;;;;;;;2.73;1.70;;;;;;;13.55;80.96;100617.03;4993049;56;1138760;-81